Houston, Texas
Traffic Map
Current Weather Conditions
Houston, Texas
Clear
Clear
82°
Feels Like: 86°
Wind Chill: 82° Ceiling: Unl
Heat Index: 86° Visibility: 10mi
Dew Point: 70° Wind: 15mph
Humidity: 66% Direction: 30° (NNE)
Pressure: 29.98in Gusts: 22mph
Raw Report DataKMCJ 230015Z AUTO 03013G19KT 10SM CLR 28/21 A2998 RMK AO1
Traffic Incident Summary
Active as of:
Severity:
Category:
InformationThere was an issue retrieving the traffic information for this location. Please try a different location or try again shortly.
Advertisements
Track Severe Weather on mobile